createdAt,value
2024-02-29T00:00:21.226Z,100812.34
2024-02-29T00:00:55.059Z,100816.78
2024-02-29T00:01:27.001Z,100814.16
2024-02-29T00:01:59.079Z,100813.50
2024-02-29T00:02:30.908Z,100811.75
2024-02-29T00:03:03.651Z,100815.28
2024-02-29T00:03:35.635Z,100817.03
2024-02-29T00:04:07.805Z,100817.09
2024-02-29T00:04:39.606Z,100809.28
2024-02-29T00:05:13.441Z,100814.59
2024-02-29T00:05:45.920Z,100815.66
2024-02-29T00:06:17.713Z,100815.72
2024-02-29T00:06:49.545Z,100820.88
2024-02-29T00:07:22.597Z,100822.66
2024-02-29T00:07:54.586Z,100820.03
2024-02-29T00:08:28.064Z,100816.50
2024-02-29T00:09:00.027Z,100819.13
2024-02-29T00:09:32.044Z,100823.34
2024-02-29T00:10:04.134Z,100818.19
2024-02-29T00:10:36.375Z,100815.53
2024-02-29T00:11:08.183Z,100817.28
2024-02-29T00:11:40.049Z,100829.44
2024-02-29T00:12:11.834Z,100820.72
2024-02-29T00:12:43.925Z,100820.81
2024-02-29T00:13:15.777Z,100821.66
2024-02-29T00:13:47.639Z,100820.06
2024-02-29T00:14:20.125Z,100819.19
2024-02-29T00:14:52.907Z,100812.25
2024-02-29T00:15:24.686Z,100821.81
2024-02-29T00:15:56.531Z,100824.44
2024-02-29T00:16:28.363Z,100818.31
2024-02-29T00:17:02.056Z,100820.88
2024-02-29T00:17:34.161Z,100814.81
2024-02-29T00:18:06.217Z,100813.06
2024-02-29T00:18:38.131Z,100812.25
2024-02-29T00:19:10.289Z,100815.84
2024-02-29T00:19:42.164Z,100809.09
2024-02-29T00:20:13.912Z,100812.72
2024-02-29T00:20:45.736Z,100811.03
2024-02-29T00:21:17.580Z,100811.81
2024-02-29T00:21:49.450Z,100815.25
2024-02-29T00:22:21.322Z,100818.84
2024-02-29T00:22:53.255Z,100813.63
2024-02-29T00:23:25.103Z,100815.47
2024-02-29T00:23:56.932Z,100820.69
2024-02-29T00:24:28.831Z,100816.34
2024-02-29T00:25:00.844Z,100814.88
2024-02-29T00:25:32.741Z,100815.06
2024-02-29T00:26:04.816Z,100821.16
2024-02-29T00:26:36.661Z,100818.56
2024-02-29T00:27:08.646Z,100813.44
2024-02-29T00:27:40.704Z,100815.25
2024-02-29T00:28:12.884Z,100809.25
2024-02-29T00:28:44.868Z,100816.34
2024-02-29T00:29:16.769Z,100806.91
2024-02-29T00:29:48.590Z,100810.38
2024-02-29T00:30:20.748Z,100818.94
2024-02-29T00:30:52.729Z,100816.28
2024-02-29T00:31:25.703Z,100818.03
2024-02-29T00:32:01.861Z,100813.63
2024-02-29T00:32:35.029Z,100811.09
2024-02-29T00:33:07.178Z,100812.69
2024-02-29T00:33:40.873Z,100816.22
2024-02-29T00:34:13.480Z,100804.38
2024-02-29T00:34:45.337Z,100818.19
2024-02-29T00:35:17.117Z,100813.09
2024-02-29T00:35:49.795Z,100808.84
2024-02-29T00:36:24.244Z,100813.31
2024-02-29T00:36:56.554Z,100811.63
2024-02-29T00:37:29.762Z,100809.16
2024-02-29T00:38:01.657Z,100809.16
2024-02-29T00:38:33.426Z,100809.16
2024-02-29T00:39:11.790Z,100812.69
2024-02-29T00:39:46.795Z,100812.78
2024-02-29T00:40:18.664Z,100811.03
2024-02-29T00:40:50.532Z,100810.19
2024-02-29T00:41:22.552Z,100812.69
2024-02-29T00:41:54.342Z,100816.97
2024-02-29T00:42:26.165Z,100812.72
2024-02-29T00:42:58.491Z,100817.16
2024-02-29T00:43:30.313Z,100812.03
2024-02-29T00:44:02.154Z,100808.53
2024-02-29T00:44:34.239Z,100822.56
2024-02-29T00:45:06.462Z,100811.38
2024-02-29T00:45:38.301Z,100814.88
2024-02-29T00:46:10.271Z,100814.03
2024-02-29T00:46:42.252Z,100814.88
2024-02-29T00:47:14.050Z,100812.34
2024-02-29T00:47:45.917Z,100816.72
2024-02-29T00:48:17.848Z,100809.75
2024-02-29T00:48:49.671Z,100815.88
2024-02-29T00:49:21.795Z,100815.88
2024-02-29T00:49:53.585Z,100810.75
2024-02-29T00:50:25.710Z,100821.84
2024-02-29T00:50:57.561Z,100813.25
2024-02-29T00:51:29.537Z,100817.56
2024-02-29T00:52:01.438Z,100817.66
2024-02-29T00:52:33.246Z,100819.34
2024-02-29T00:53:05.100Z,100826.25
2024-02-29T00:53:36.937Z,100825.34
2024-02-29T00:54:09.577Z,100816.63
2024-02-29T00:54:41.795Z,100813.13
2024-02-29T00:55:14.346Z,100813.19
2024-02-29T00:55:46.162Z,100817.56
2024-02-29T00:56:18.077Z,100817.41
2024-02-29T00:56:49.932Z,100820.88
2024-02-29T00:57:21.737Z,100821.72
2024-02-29T00:57:53.518Z,100822.63
2024-02-29T00:58:25.359Z,100815.72
2024-02-29T00:58:57.127Z,100819.19
2024-02-29T00:59:28.912Z,100821.78
2024-02-29T01:00:00.746Z,100809.69
2024-02-29T01:00:32.794Z,100805.34
2024-02-29T01:01:04.962Z,100818.31
2024-02-29T01:01:36.910Z,100813.19
2024-02-29T01:02:08.795Z,100817.56
2024-02-29T01:02:40.606Z,100806.31
2024-02-29T01:03:12.510Z,100805.47
2024-02-29T01:03:44.345Z,100817.56
2024-02-29T01:04:16.208Z,100813.19
2024-02-29T01:04:48.039Z,100819.31
2024-02-29T01:05:19.945Z,100820.09
2024-02-29T01:05:52.001Z,100815.72
2024-02-29T01:06:23.823Z,100813.19
2024-02-29T01:06:57.260Z,100808.84
2024-02-29T01:07:29.206Z,100808.00
2024-02-29T01:08:01.006Z,100814.09
2024-02-29T01:08:32.923Z,100817.56
2024-02-29T01:09:05.518Z,100811.50
2024-02-29T01:09:37.427Z,100807.16
2024-02-29T01:10:12.910Z,100808.94
2024-02-29T01:10:44.839Z,100805.47
2024-02-29T01:11:18.038Z,100812.47
2024-02-29T01:11:49.982Z,100815.06
2024-02-29T01:12:21.933Z,100804.72
2024-02-29T01:12:53.785Z,100804.63
2024-02-29T01:13:25.566Z,100808.09
2024-02-29T01:13:57.340Z,100806.41
2024-02-29T01:14:29.178Z,100808.16
2024-02-29T01:15:01.002Z,100798.63
2024-02-29T01:15:32.817Z,100794.31
2024-02-29T01:16:04.943Z,100810.75
2024-02-29T01:16:36.793Z,100813.44
2024-02-29T01:17:08.577Z,100803.88
2024-02-29T01:17:44.769Z,100798.69
2024-02-29T01:18:16.806Z,100804.13
2024-02-29T01:18:48.706Z,100804.84
2024-02-29T01:19:20.698Z,100805.69
2024-02-29T01:19:52.485Z,100804.94
2024-02-29T01:20:24.249Z,100801.41
2024-02-29T01:20:56.057Z,100797.13
2024-02-29T01:21:27.919Z,100804.25
2024-02-29T01:22:00.320Z,100808.66
2024-02-29T01:22:32.357Z,100808.47
2024-02-29T01:23:04.212Z,100809.38
2024-02-29T01:23:35.986Z,100803.34
2024-02-29T01:24:07.811Z,100806.72
2024-02-29T01:24:39.765Z,100804.97
2024-02-29T01:25:12.810Z,100803.19
2024-02-29T01:25:44.773Z,100804.94
2024-02-29T01:26:16.550Z,100806.66
2024-02-29T01:26:48.355Z,100805.81
2024-02-29T01:27:20.435Z,100805.03
2024-02-29T01:27:52.519Z,100808.41
2024-02-29T01:28:24.338Z,100808.41
2024-02-29T01:28:57.229Z,100805.81
2024-02-29T01:29:29.221Z,100796.31
2024-02-29T01:30:01.055Z,100801.50
2024-02-29T01:30:32.895Z,100798.91
2024-02-29T01:31:05.162Z,100797.06
2024-02-29T01:31:37.140Z,100799.66
2024-02-29T01:32:18.542Z,100793.53
2024-02-29T01:32:54.603Z,100799.66
2024-02-29T01:33:26.427Z,100794.47
2024-02-29T01:33:58.283Z,100791.84
2024-02-29T01:34:30.079Z,100788.41
2024-02-29T01:35:04.235Z,100802.19
2024-02-29T01:35:36.076Z,100797.97
2024-02-29T01:36:07.924Z,100786.66
2024-02-29T01:36:39.833Z,100786.72
2024-02-29T01:37:11.995Z,100791.00
2024-02-29T01:37:43.847Z,100792.72
2024-02-29T01:38:15.658Z,100790.09
2024-02-29T01:38:47.459Z,100795.31
2024-02-29T01:39:19.320Z,100790.09
2024-02-29T01:39:51.126Z,100787.56
2024-02-29T01:40:23.328Z,100790.22
2024-02-29T01:40:55.118Z,100787.56
2024-02-29T01:41:27.045Z,100797.97
2024-02-29T01:41:58.895Z,100795.41
2024-02-29T01:42:30.947Z,100785.84
2024-02-29T01:43:03.940Z,100787.56
2024-02-29T01:43:36.095Z,100793.72
2024-02-29T01:44:07.877Z,100790.41
2024-02-29T01:44:53.859Z,100792.22
2024-02-29T01:45:25.694Z,100794.75
2024-02-29T01:46:15.353Z,100785.28
2024-02-29T01:46:47.211Z,100789.63
2024-02-29T01:47:18.971Z,100793.09
2024-02-29T01:47:50.764Z,100791.25
2024-02-29T01:48:22.760Z,100793.91
2024-02-29T01:48:55.895Z,100794.75
2024-02-29T01:49:28.263Z,100787.88
2024-02-29T01:50:05.029Z,100788.72
2024-02-29T01:50:38.024Z,100791.25
2024-02-29T01:51:13.974Z,100787.91
2024-02-29T01:51:46.454Z,100783.69
2024-02-29T01:52:19.668Z,100785.38
2024-02-29T01:52:51.886Z,100786.16
2024-02-29T01:53:23.726Z,100784.38
2024-02-29T01:53:55.520Z,100787.03
2024-02-29T01:54:27.549Z,100779.16
2024-02-29T01:54:59.503Z,100783.56
2024-02-29T01:55:31.606Z,100781.88
2024-02-29T01:56:03.445Z,100784.47
2024-02-29T01:56:35.271Z,100785.28
2024-02-29T01:57:08.033Z,100777.47
2024-02-29T01:57:41.121Z,100781.88
2024-02-29T01:58:14.221Z,100782.59
2024-02-29T01:58:46.388Z,100774.91
2024-02-29T01:59:18.661Z,100776.81
2024-02-29T01:59:51.169Z,100782.00
2024-02-29T02:00:22.995Z,100776.81
2024-02-29T02:00:55.001Z,100775.97
2024-02-29T02:01:27.107Z,100782.09
2024-02-29T02:01:59.138Z,100771.72
2024-02-29T02:02:31.000Z,100775.22
2024-02-29T02:03:02.831Z,100770.03
2024-02-29T02:03:35.281Z,100771.72
2024-02-29T02:04:07.146Z,100771.72
2024-02-29T02:04:38.976Z,100763.13
2024-02-29T02:05:10.871Z,100770.88
2024-02-29T02:05:42.769Z,100769.25
2024-02-29T02:06:14.922Z,100763.06
2024-02-29T02:06:46.896Z,100759.63
2024-02-29T02:07:18.728Z,100768.34
2024-02-29T02:07:50.850Z,100757.00
2024-02-29T02:08:24.972Z,100758.78
2024-02-29T02:08:57.738Z,100757.09
2024-02-29T02:09:30.174Z,100764.81
2024-02-29T02:10:02.991Z,100759.63
2024-02-29T02:10:34.931Z,100770.03
2024-02-29T02:11:06.787Z,100759.63
2024-02-29T02:11:39.425Z,100762.22
2024-02-29T02:12:14.021Z,100763.19
2024-02-29T02:12:48.726Z,100765.88
2024-02-29T02:13:20.654Z,100774.50
2024-02-29T02:13:52.645Z,100765.94
2024-02-29T02:14:24.509Z,100769.38
2024-02-29T02:14:56.339Z,100769.31
2024-02-29T02:15:28.158Z,100768.47
2024-02-29T02:16:00.067Z,100770.16
2024-02-29T02:16:32.421Z,100768.47
2024-02-29T02:17:04.353Z,100772.88
2024-02-29T02:17:36.203Z,100768.56
2024-02-29T02:18:08.067Z,100766.78
2024-02-29T02:18:40.068Z,100771.84
2024-02-29T02:19:13.595Z,100771.84
2024-02-29T02:19:45.580Z,100769.31
2024-02-29T02:20:19.022Z,100776.25
2024-02-29T02:20:51.099Z,100771.97
2024-02-29T02:21:23.016Z,100773.66
2024-02-29T02:21:54.929Z,100769.25
2024-02-29T02:22:28.157Z,100768.53
2024-02-29T02:22:59.936Z,100776.31
2024-02-29T02:23:31.986Z,100775.47
2024-02-29T02:24:03.811Z,100767.63
2024-02-29T02:24:37.626Z,100776.25
2024-02-29T02:25:09.637Z,100769.31
2024-02-29T02:25:41.480Z,100769.31
2024-02-29T02:26:13.240Z,100774.44
2024-02-29T02:26:45.010Z,100770.16
2024-02-29T02:27:16.886Z,100769.25
2024-02-29T02:27:48.704Z,100769.25
2024-02-29T02:28:20.482Z,100769.31
2024-02-29T02:28:52.279Z,100758.00
2024-02-29T02:29:24.053Z,100764.03
2024-02-29T02:29:56.344Z,100766.63
2024-02-29T02:30:28.125Z,100764.97
2024-02-29T02:31:00.005Z,100761.44
2024-02-29T02:31:31.797Z,100767.50
2024-02-29T02:32:03.684Z,100767.56
2024-02-29T02:32:36.754Z,100759.75
2024-02-29T02:33:08.920Z,100761.56
2024-02-29T02:33:40.835Z,100768.47
2024-02-29T02:34:12.755Z,100768.47
2024-02-29T02:34:44.613Z,100765.09
2024-02-29T02:35:16.400Z,100763.34
2024-02-29T02:35:48.816Z,100760.00
2024-02-29T02:36:20.650Z,100762.72
2024-02-29T02:36:52.518Z,100761.03
2024-02-29T02:37:24.337Z,100759.22
2024-02-29T02:37:56.174Z,100755.78
2024-02-29T02:38:28.006Z,100760.13
2024-02-29T02:38:59.808Z,100755.78
2024-02-29T02:39:31.751Z,100758.44
2024-02-29T02:40:07.558Z,100759.22
2024-02-29T02:40:39.343Z,100757.53
2024-02-29T02:41:12.627Z,100763.50
2024-02-29T02:41:47.777Z,100761.81
2024-02-29T02:42:19.589Z,100765.38
2024-02-29T02:42:51.551Z,100754.84
2024-02-29T02:43:23.338Z,100762.66
2024-02-29T02:43:55.177Z,100757.53
2024-02-29T02:44:26.959Z,100762.66
2024-02-29T02:44:58.818Z,100760.13
2024-02-29T02:45:30.707Z,100756.78
2024-02-29T02:46:02.619Z,100761.13
2024-02-29T02:46:34.462Z,100766.34
2024-02-29T02:47:06.306Z,100761.13
2024-02-29T02:47:38.132Z,100762.88
2024-02-29T02:48:10.000Z,100759.56
2024-02-29T02:48:41.819Z,100761.25
2024-02-29T02:49:15.177Z,100762.19
2024-02-29T02:49:47.045Z,100762.03
2024-02-29T02:50:19.044Z,100759.50
2024-02-29T02:50:53.020Z,100760.50
2024-02-29T02:51:28.314Z,100765.56
2024-02-29T02:52:00.177Z,100766.47
2024-02-29T02:52:32.115Z,100762.19
2024-02-29T02:53:05.368Z,100760.34
2024-02-29T02:53:37.171Z,100766.41
2024-02-29T02:54:08.989Z,100770.69
2024-02-29T02:54:41.004Z,100757.81
2024-02-29T02:55:13.367Z,100768.94
2024-02-29T02:55:45.215Z,100764.56
2024-02-29T02:56:16.998Z,100779.25
2024-02-29T02:56:48.910Z,100768.84
2024-02-29T02:57:20.784Z,100773.06
2024-02-29T02:57:52.639Z,100773.75
2024-02-29T02:58:24.420Z,100770.28
2024-02-29T02:58:56.180Z,100772.00
2024-02-29T02:59:29.774Z,100776.31
2024-02-29T03:00:01.665Z,100776.34
2024-02-29T03:00:33.750Z,100769.41
2024-02-29T03:01:05.612Z,100772.06
2024-02-29T03:01:38.152Z,100774.56
2024-02-29T03:02:10.072Z,100778.13
2024-02-29T03:02:41.985Z,100772.88
2024-02-29T03:03:13.800Z,100772.91
2024-02-29T03:03:45.819Z,100767.72
2024-02-29T03:04:17.867Z,100769.47
2024-02-29T03:04:49.792Z,100770.38
2024-02-29T03:05:22.168Z,100766.16
2024-02-29T03:05:53.979Z,100769.66
2024-02-29T03:06:25.753Z,100763.63
2024-02-29T03:06:57.625Z,100769.66
2024-02-29T03:07:29.545Z,100771.44
2024-02-29T03:08:02.592Z,100773.06
2024-02-29T03:08:34.428Z,100773.13
2024-02-29T03:09:08.940Z,100775.72
2024-02-29T03:09:40.921Z,100773.91
2024-02-29T03:10:13.097Z,100777.28
2024-02-29T03:10:44.948Z,100772.91
2024-02-29T03:11:16.770Z,100773.75
2024-02-29T03:11:48.588Z,100775.47
2024-02-29T03:12:20.459Z,100771.06
2024-02-29T03:12:52.337Z,100774.50
2024-02-29T03:13:24.179Z,100776.19
2024-02-29T03:13:56.114Z,100776.13
2024-02-29T03:14:28.259Z,100776.13
2024-02-29T03:15:00.033Z,100775.22
2024-02-29T03:15:31.893Z,100777.88
2024-02-29T03:16:03.795Z,100773.59
2024-02-29T03:16:36.411Z,100780.47
2024-02-29T03:17:08.177Z,100771.00
2024-02-29T03:17:40.069Z,100771.91
2024-02-29T03:18:12.324Z,100771.91
2024-02-29T03:18:44.438Z,100775.34
2024-02-29T03:19:16.299Z,100779.69
2024-02-29T03:19:48.148Z,100778.00
2024-02-29T03:20:19.931Z,100777.09
2024-02-29T03:20:51.736Z,100782.31
2024-02-29T03:21:23.538Z,100784.97
2024-02-29T03:21:55.397Z,100781.63
2024-02-29T03:22:27.398Z,100781.75
2024-02-29T03:22:59.169Z,100783.56
2024-02-29T03:23:30.981Z,100788.03
2024-02-29T03:24:02.779Z,100785.50
2024-02-29T03:24:40.221Z,100778.47
2024-02-29T03:25:12.405Z,100782.81
2024-02-29T03:25:44.289Z,100779.44
2024-02-29T03:26:16.366Z,100790.78
2024-02-29T03:26:48.445Z,100782.16
2024-02-29T03:27:20.223Z,100784.81
2024-02-29T03:27:52.976Z,100782.22
2024-02-29T03:28:24.815Z,100785.72
2024-02-29T03:28:56.588Z,100782.41
2024-02-29T03:29:29.936Z,100784.09
2024-02-29T03:30:01.928Z,100786.69
2024-02-29T03:30:34.023Z,100785.00
2024-02-29T03:31:11.142Z,100790.19
2024-02-29T03:31:46.663Z,100776.38
2024-02-29T03:32:21.499Z,100793.75
2024-02-29T03:32:54.968Z,100786.00
2024-02-29T03:33:26.834Z,100787.81
2024-02-29T03:33:59.009Z,100778.28
2024-02-29T03:34:30.995Z,100788.66
2024-02-29T03:35:05.286Z,100791.28
2024-02-29T03:35:37.104Z,100789.69
2024-02-29T03:36:09.850Z,100784.53
2024-02-29T03:36:41.726Z,100791.44
2024-02-29T03:37:14.877Z,100793.19
2024-02-29T03:37:47.456Z,100790.66
2024-02-29T03:38:19.471Z,100780.31
2024-02-29T03:38:51.268Z,100794.09
2024-02-29T03:39:23.039Z,100797.66
2024-02-29T03:39:55.930Z,100790.78
2024-02-29T03:40:27.851Z,100800.25
2024-02-29T03:40:59.865Z,100796.00
2024-02-29T03:41:32.393Z,100796.00
2024-02-29T03:42:04.204Z,100797.75
2024-02-29T03:42:36.033Z,100802.94
2024-02-29T03:43:07.922Z,100797.03
2024-02-29T03:43:39.773Z,100797.94
2024-02-29T03:44:11.608Z,100797.94
2024-02-29T03:44:45.077Z,100791.16
2024-02-29T03:45:16.953Z,100793.81
2024-02-29T03:45:48.767Z,100794.72
2024-02-29T03:46:20.597Z,100793.88
2024-02-29T03:46:52.569Z,100790.44
2024-02-29T03:47:24.636Z,100790.53
2024-02-29T03:47:56.683Z,100793.13
2024-02-29T03:48:29.780Z,100788.06
2024-02-29T03:49:01.748Z,100795.78
2024-02-29T03:49:33.591Z,100786.25
2024-02-29T03:50:06.144Z,100786.25
2024-02-29T03:50:37.916Z,100789.03
2024-02-29T03:51:09.799Z,100790.72
2024-02-29T03:51:41.644Z,100786.44
2024-02-29T03:52:13.540Z,100787.28
2024-02-29T03:52:45.410Z,100783.88
2024-02-29T03:53:17.200Z,100781.28
2024-02-29T03:53:49.110Z,100780.41
2024-02-29T03:54:20.926Z,100786.59
2024-02-29T03:54:52.834Z,100784.91
2024-02-29T03:55:24.776Z,100790.94
2024-02-29T03:55:56.590Z,100788.41
2024-02-29T03:56:28.381Z,100783.22
2024-02-29T03:57:00.215Z,100784.00
2024-02-29T03:57:32.035Z,100792.56
2024-02-29T03:58:04.370Z,100786.53
2024-02-29T03:58:36.185Z,100785.63
2024-02-29T03:59:08.005Z,100791.78
2024-02-29T03:59:39.813Z,100783.22
2024-02-29T04:00:14.765Z,100781.41
2024-02-29T04:00:46.908Z,100784.91
2024-02-29T04:01:19.304Z,100785.84
2024-02-29T04:01:51.944Z,100787.56
2024-02-29T04:02:23.918Z,100784.97
2024-02-29T04:02:55.780Z,100783.28
2024-02-29T04:03:27.551Z,100774.72
2024-02-29T04:03:59.412Z,100774.78
2024-02-29T04:04:31.244Z,100768.81
2024-02-29T04:05:03.072Z,100779.13
2024-02-29T04:05:34.881Z,100781.78
2024-02-29T04:06:09.664Z,100785.31
2024-02-29T04:06:41.527Z,100786.16
2024-02-29T04:07:13.463Z,100779.22
2024-02-29T04:07:45.378Z,100782.72
2024-02-29T04:08:17.220Z,100782.72
2024-02-29T04:08:49.040Z,100782.72
2024-02-29T04:09:20.957Z,100782.78
2024-02-29T04:09:55.986Z,100777.72
2024-02-29T04:10:31.453Z,100773.25
2024-02-29T04:11:03.624Z,100776.75
2024-02-29T04:11:35.478Z,100769.88
2024-02-29T04:12:07.595Z,100775.06
2024-02-29T04:12:39.434Z,100770.72
2024-02-29T04:13:11.254Z,100770.81
2024-02-29T04:13:43.092Z,100773.47
2024-02-29T04:14:14.900Z,100770.09
2024-02-29T04:14:46.725Z,100765.88
2024-02-29T04:15:18.574Z,100778.00
2024-02-29T04:15:50.547Z,100768.47
2024-02-29T04:16:23.316Z,100765.00
2024-02-29T04:16:55.344Z,100768.47
2024-02-29T04:17:27.174Z,100772.09
2024-02-29T04:18:00.095Z,100773.84
2024-02-29T04:18:32.093Z,100775.47
2024-02-29T04:19:04.993Z,100773.72
2024-02-29T04:19:39.163Z,100762.56
2024-02-29T04:20:11.418Z,100766.84
2024-02-29T04:20:43.429Z,100775.53
2024-02-29T04:21:15.213Z,100772.03
2024-02-29T04:21:47.698Z,100768.72
2024-02-29T04:22:19.755Z,100767.81
2024-02-29T04:22:51.606Z,100771.31
2024-02-29T04:23:23.388Z,100778.19
2024-02-29T04:23:55.226Z,100775.59
2024-02-29T04:24:27.387Z,100775.47
2024-02-29T04:24:59.276Z,100774.69
2024-02-29T04:25:31.124Z,100769.50
2024-02-29T04:26:03.477Z,100773.78
2024-02-29T04:26:35.252Z,100775.47
2024-02-29T04:27:07.187Z,100772.75
2024-02-29T04:27:39.386Z,100769.31
2024-02-29T04:28:11.210Z,100771.84
2024-02-29T04:28:43.066Z,100774.31
2024-02-29T04:29:14.850Z,100776.84
2024-02-29T04:29:49.530Z,100774.22
2024-02-29T04:30:21.319Z,100768.28
2024-02-29T04:30:53.206Z,100779.41
2024-02-29T04:31:25.089Z,100775.06
2024-02-29T04:31:56.903Z,100777.75
2024-02-29T04:32:28.673Z,100778.56
2024-02-29T04:33:01.507Z,100776.81
2024-02-29T04:33:33.636Z,100775.97
2024-02-29T04:34:05.472Z,100777.59
2024-02-29T04:34:37.255Z,100774.94
2024-02-29T04:35:10.555Z,100783.63
2024-02-29T04:35:42.388Z,100776.75
2024-02-29T04:36:14.168Z,100776.75
2024-02-29T04:36:45.985Z,100771.63
2024-02-29T04:37:17.991Z,100770.72
2024-02-29T04:37:49.803Z,100771.56
2024-02-29T04:38:21.568Z,100774.09
2024-02-29T04:38:53.357Z,100778.38
2024-02-29T04:39:25.234Z,100778.31
2024-02-29T04:39:57.076Z,100776.53
2024-02-29T04:40:30.484Z,100768.75
2024-02-29T04:41:02.402Z,100771.34
2024-02-29T04:41:34.227Z,100765.31
2024-02-29T04:42:06.064Z,100766.25
2024-02-29T04:42:38.209Z,100772.28
2024-02-29T04:43:10.542Z,100767.84
2024-02-29T04:43:42.361Z,100773.03
2024-02-29T04:44:14.258Z,100769.53
2024-02-29T04:44:46.097Z,100767.78
2024-02-29T04:45:17.893Z,100766.94
2024-02-29T04:45:49.807Z,100776.41
2024-02-29T04:46:21.640Z,100772.00
2024-02-29T04:46:53.463Z,100776.25
2024-02-29T04:47:26.102Z,100778.00
2024-02-29T04:47:58.595Z,100772.69
2024-02-29T04:48:30.433Z,100773.59
2024-02-29T04:49:02.276Z,100778.84
2024-02-29T04:49:34.829Z,100777.09
2024-02-29T04:50:06.837Z,100776.31
2024-02-29T04:50:38.634Z,100778.00
2024-02-29T04:51:10.736Z,100772.84
2024-02-29T04:51:42.624Z,100781.41
2024-02-29T04:52:14.776Z,100775.28
2024-02-29T04:52:46.794Z,100774.38
2024-02-29T04:53:18.842Z,100782.97
2024-02-29T04:53:50.634Z,100775.16
2024-02-29T04:54:22.416Z,100777.88
2024-02-29T04:54:54.347Z,100774.50
2024-02-29T04:55:26.130Z,100765.81
2024-02-29T04:55:58.268Z,100775.34
2024-02-29T04:56:30.069Z,100772.75
2024-02-29T04:57:01.961Z,100772.75
2024-02-29T04:57:33.817Z,100768.47
2024-02-29T04:58:05.734Z,100769.19
2024-02-29T04:58:37.641Z,100772.63
2024-02-29T04:59:10.367Z,100770.03
2024-02-29T04:59:42.259Z,100772.69
2024-02-29T05:00:14.382Z,100772.69
2024-02-29T05:00:46.326Z,100769.19
2024-02-29T05:01:18.447Z,100771.00
2024-02-29T05:01:51.485Z,100774.44
2024-02-29T05:02:24.131Z,100770.94
2024-02-29T05:02:56.281Z,100772.63
2024-02-29T05:03:28.094Z,100776.88
2024-02-29T05:03:59.944Z,100773.38
2024-02-29T05:04:32.197Z,100772.47
2024-02-29T05:05:05.124Z,100768.97
2024-02-29T05:05:36.911Z,100769.03
2024-02-29T05:06:14.870Z,100766.44
2024-02-29T05:06:46.794Z,100773.31
2024-02-29T05:07:18.760Z,100769.09
2024-02-29T05:07:50.592Z,100774.22
2024-02-29T05:08:23.194Z,100774.16
2024-02-29T05:08:55.084Z,100771.69
2024-02-29T05:09:27.069Z,100774.16
2024-02-29T05:09:58.925Z,100769.81
2024-02-29T05:10:30.829Z,100763.78
2024-02-29T05:11:02.636Z,100766.38
2024-02-29T05:11:36.696Z,100768.06
2024-02-29T05:12:09.785Z,100767.34
2024-02-29T05:12:41.608Z,100767.28
2024-02-29T05:13:13.459Z,100762.19
2024-02-29T05:13:45.326Z,100763.94
2024-02-29T05:14:17.134Z,100758.75
2024-02-29T05:14:48.947Z,100760.50
2024-02-29T05:15:21.990Z,100760.50
2024-02-29T05:15:53.880Z,100759.59
2024-02-29T05:16:25.740Z,100757.88
2024-02-29T05:16:57.555Z,100765.66
2024-02-29T05:17:29.666Z,100759.56
2024-02-29T05:18:01.684Z,100764.63
2024-02-29T05:18:33.701Z,100761.97
2024-02-29T05:19:05.586Z,100762.03
2024-02-29T05:19:38.997Z,100762.88
2024-02-29T05:20:11.545Z,100757.69
2024-02-29T05:20:43.322Z,100763.72
2024-02-29T05:21:15.220Z,100761.97
2024-02-29T05:21:48.246Z,100762.81
2024-02-29T05:22:21.061Z,100760.28
2024-02-29T05:22:55.007Z,100756.78
2024-02-29T05:23:26.892Z,100761.88
2024-02-29T05:23:58.804Z,100761.03
2024-02-29T05:24:31.101Z,100750.69
2024-02-29T05:25:03.076Z,100750.88
2024-02-29T05:25:36.721Z,100757.75
2024-02-29T05:26:09.173Z,100758.66
2024-02-29T05:26:41.052Z,100762.94
2024-02-29T05:27:12.836Z,100755.16
2024-02-29T05:27:44.725Z,100751.72
2024-02-29T05:28:19.260Z,100755.31
2024-02-29T05:28:51.188Z,100758.09
2024-02-29T05:29:23.018Z,100759.84
2024-02-29T05:29:54.789Z,100753.91
2024-02-29T05:30:26.958Z,100754.09
2024-02-29T05:30:59.347Z,100752.38
2024-02-29T05:31:31.795Z,100758.38
2024-02-29T05:32:03.636Z,100758.47
2024-02-29T05:32:35.562Z,100753.50
2024-02-29T05:33:07.493Z,100756.06
2024-02-29T05:33:41.964Z,100760.34
2024-02-29T05:34:15.302Z,100755.22
2024-02-29T05:34:47.654Z,100763.78
2024-02-29T05:35:19.455Z,100759.38
2024-02-29T05:35:52.535Z,100761.19
2024-02-29T05:36:24.377Z,100758.59
2024-02-29T05:36:56.179Z,100761.28
2024-02-29T05:37:28.338Z,100757.91
2024-02-29T05:38:00.386Z,100764.00
2024-02-29T05:38:32.346Z,100764.00
2024-02-29T05:39:04.192Z,100765.75
2024-02-29T05:39:36.218Z,100760.50
2024-02-29T05:40:08.721Z,100763.09
2024-02-29T05:40:40.732Z,100761.41
2024-02-29T05:41:12.568Z,100763.09
2024-02-29T05:41:44.523Z,100763.94
2024-02-29T05:42:16.319Z,100761.28
2024-02-29T05:42:48.136Z,100758.69
2024-02-29T05:43:20.048Z,100758.91
2024-02-29T05:43:51.905Z,100759.59
2024-02-29T05:44:23.720Z,100763.00
2024-02-29T05:44:55.531Z,100767.22
2024-02-29T05:45:27.353Z,100761.06
2024-02-29T05:45:59.285Z,100765.34
2024-02-29T05:46:31.141Z,100767.16
2024-02-29T05:47:03.343Z,100768.06
2024-02-29T05:47:35.432Z,100766.25
2024-02-29T05:48:07.660Z,100764.47
2024-02-29T05:48:40.497Z,100763.66
2024-02-29T05:49:12.515Z,100764.47
2024-02-29T05:49:44.395Z,100767.84
2024-02-29T05:50:16.201Z,100758.31
2024-02-29T05:50:48.049Z,100757.41
2024-02-29T05:51:20.070Z,100764.34
2024-02-29T05:51:51.886Z,100764.28
2024-02-29T05:52:23.788Z,100750.59
2024-02-29T05:52:55.621Z,100754.97
2024-02-29T05:53:27.644Z,100760.22
2024-02-29T05:53:59.479Z,100764.47
2024-02-29T05:54:31.404Z,100760.97
2024-02-29T05:55:09.477Z,100758.38
2024-02-29T05:55:41.676Z,100760.84
2024-02-29T05:56:14.847Z,100764.28
2024-02-29T05:56:46.783Z,100763.50
2024-02-29T05:57:18.568Z,100765.94
2024-02-29T05:57:50.344Z,100768.53
2024-02-29T05:58:22.286Z,100767.63
2024-02-29T05:58:54.143Z,100765.94
2024-02-29T05:59:26.270Z,100764.22
2024-02-29T05:59:58.213Z,100766.81
2024-02-29T06:00:30.500Z,100763.44
2024-02-29T06:01:03.184Z,100767.72
2024-02-29T06:01:35.270Z,100768.56
2024-02-29T06:02:07.274Z,100767.84
2024-02-29T06:02:39.735Z,100773.88
2024-02-29T06:03:11.589Z,100777.25
2024-02-29T06:03:43.516Z,100775.50
2024-02-29T06:04:15.364Z,100771.22
2024-02-29T06:04:47.183Z,100774.59
2024-02-29T06:05:20.081Z,100774.59
2024-02-29T06:05:51.867Z,100783.28
2024-02-29T06:06:23.646Z,100781.59
2024-02-29T06:06:55.459Z,100781.59
2024-02-29T06:07:27.764Z,100782.38
2024-02-29T06:07:59.548Z,100783.34
2024-02-29T06:08:31.628Z,100783.28